Estación Meteorológica Peña el Pijo (Robertgarden) [ 11/12/18 20:34:22 CET ]

Fecha Hora Presion(HPa) Temp (°C) Humedad % Rocio (°C) Viento ( m/s) Direccion Lluvia 1Hora(mm) Lluvia 24H(mm) LLuvia Total(mm)
2018-May-27 01:01:36 1006.600 13.8 77 9.8         219.11
2018-May-27 02:01:43 1006.200 12.8 78 9.0         219.11
2018-May-27 03:02:18 1005.600 11.0 80 7.7         219.11
2018-May-27 04:02:05 1005.400 -19.9 82 7.1         219.11
2018-May-27 05:02:25 1005.500 9.5 84 6.9         219.11
2018-May-27 06:01:40 1005.700 9.9 85 7.4         219.11
2018-May-27 07:01:42 1005.700 10.3 85 7.8         219.11
2018-May-27 08:01:47 1005.900 12.3 86 10.0         219.11
2018-May-27 09:01:51 1005.800 15.2 84 12.5         219.11
2018-May-27 10:01:52 1006.000 21.3 58 12.7         219.11
2018-May-27 11:01:41 1005.900 20.2 54 10.6         219.11
2018-May-27 12:01:49 1006.300 18.7 58 10.3         219.11
2018-May-27 13:01:56 1007.200 16.1 74 11.5     1.03 1.03 220.15
2018-May-27 14:01:41 1008.300 12.3 81 9.1     4.14 6.21 225.33
2018-May-27 15:01:53 1007.000 11.6 83 8.8     5.18 11.39 230.51
2018-May-27 16:01:59 1007.000 13.4 84 10.7       11.39 230.51
2018-May-27 17:01:51 1006.300 14.6 79 11.0       11.39 230.51
2018-May-27 18:01:42 1006.700 16.8 68 10.9       11.39 230.51
2018-May-27 19:01:46 1006.700 17.1 61 9.5       11.39 230.51
2018-May-27 20:01:41 1006.900 15.8 64 9.0       11.39 230.51
2018-May-27 21:01:49 1007.300 13.0 69 7.5       11.39 230.51
2018-May-27 22:01:41 1007.600 10.5 76 6.4       11.39 230.51
2018-May-27 23:01:41 1007.800 9.3 80 6.0       11.39 230.51

Temperatura Máxima:21°    Temperatura Mínima:-19°
Presión Máxima:1008.300 Hpa    Presión Mínima:1005.400 Hpa


Volver